createdAt,value
2023-03-31T00:00:17.509Z,25.00
2023-03-31T00:01:17.294Z,25.00
2023-03-31T00:02:17.315Z,0.00
2023-03-31T00:03:17.359Z,0.00
2023-03-31T00:04:17.543Z,0.00
2023-03-31T00:05:17.282Z,0.00
2023-03-31T00:06:17.290Z,0.00
2023-03-31T00:07:17.300Z,10.05
2023-03-31T00:08:17.293Z,24.25
2023-03-31T00:09:17.480Z,26.43
2023-03-31T00:10:18.780Z,25.00
2023-03-31T00:11:17.318Z,25.00
2023-03-31T00:12:17.326Z,24.78
2023-03-31T00:13:17.311Z,25.00
2023-03-31T00:14:17.307Z,25.80
2023-03-31T00:15:17.304Z,27.38
2023-03-31T00:16:17.349Z,27.22
2023-03-31T00:17:17.300Z,26.78
2023-03-31T00:18:17.293Z,26.07
2023-03-31T00:19:17.781Z,25.00
2023-03-31T00:20:17.303Z,25.00
2023-03-31T00:21:17.297Z,25.73
2023-03-31T00:22:17.304Z,26.61
2023-03-31T00:23:17.299Z,27.78
2023-03-31T00:24:17.307Z,27.18
2023-03-31T00:25:17.261Z,27.51
2023-03-31T00:26:17.262Z,25.00
2023-03-31T00:27:17.257Z,25.41
2023-03-31T00:28:17.259Z,26.61
2023-03-31T00:29:16.896Z,25.00
2023-03-31T00:30:17.255Z,25.81
2023-03-31T00:31:16.955Z,26.44
2023-03-31T00:32:16.882Z,25.83
2023-03-31T00:33:16.886Z,27.39
2023-03-31T00:34:16.882Z,26.43
2023-03-31T00:35:16.882Z,25.44
2023-03-31T00:36:16.987Z,25.68
2023-03-31T00:37:16.873Z,26.42
2023-03-31T00:38:16.875Z,25.71
2023-03-31T00:39:16.880Z,26.56
2023-03-31T00:40:16.879Z,25.88
2023-03-31T00:41:16.880Z,25.96
2023-03-31T00:42:16.871Z,27.72
2023-03-31T00:43:16.860Z,27.19
2023-03-31T00:44:16.897Z,28.44
2023-03-31T00:45:16.864Z,26.40
2023-03-31T00:46:16.913Z,27.27
2023-03-31T00:47:16.860Z,26.78
2023-03-31T00:48:16.849Z,25.20
2023-03-31T00:49:16.847Z,27.18
2023-03-31T00:50:16.865Z,25.61
2023-03-31T00:51:16.847Z,25.98
2023-03-31T00:52:16.860Z,25.01
2023-03-31T00:53:16.858Z,25.99
2023-03-31T00:54:16.857Z,26.90
2023-03-31T00:55:16.858Z,26.56
2023-03-31T00:56:16.862Z,26.41
2023-03-31T00:57:16.889Z,25.00
2023-03-31T00:58:16.858Z,28.21
2023-03-31T00:59:16.856Z,27.83
2023-03-31T01:00:16.943Z,26.71
2023-03-31T01:01:16.894Z,27.06
2023-03-31T01:02:16.878Z,27.07
2023-03-31T01:03:16.953Z,25.93
2023-03-31T01:04:17.288Z,25.61
2023-03-31T01:05:17.314Z,25.48
2023-03-31T01:06:17.316Z,28.55
2023-03-31T01:07:17.315Z,25.28
2023-03-31T01:08:17.327Z,25.81
2023-03-31T01:09:17.312Z,26.49
2023-03-31T01:10:17.330Z,26.67
2023-03-31T01:11:17.321Z,26.77
2023-03-31T01:12:17.325Z,26.02
2023-03-31T01:13:17.318Z,26.78
2023-03-31T01:14:17.315Z,25.74
2023-03-31T01:15:17.329Z,25.45
2023-03-31T01:16:17.411Z,26.00
2023-03-31T01:17:17.409Z,27.26
2023-03-31T01:18:17.413Z,26.37
2023-03-31T01:19:17.328Z,26.31
2023-03-31T01:20:17.346Z,26.95
2023-03-31T01:21:17.427Z,25.87
2023-03-31T01:22:17.326Z,26.26
2023-03-31T01:23:17.527Z,27.40
2023-03-31T01:24:17.332Z,27.34
2023-03-31T01:25:17.332Z,26.39
2023-03-31T01:26:17.333Z,26.21
2023-03-31T01:27:17.326Z,26.67
2023-03-31T01:28:17.333Z,26.10
2023-03-31T01:29:17.328Z,25.94
2023-03-31T01:30:17.329Z,26.10
2023-03-31T01:31:17.366Z,26.20
2023-03-31T01:32:17.359Z,26.23
2023-03-31T01:33:17.348Z,28.37
2023-03-31T01:34:17.352Z,28.39
2023-03-31T01:35:17.364Z,27.56
2023-03-31T01:36:17.415Z,28.44
2023-03-31T01:37:17.398Z,28.40
2023-03-31T01:38:18.376Z,27.62
2023-03-31T01:39:17.438Z,26.59
2023-03-31T01:40:17.422Z,27.65
2023-03-31T01:41:18.670Z,27.15
2023-03-31T01:42:17.440Z,27.73
2023-03-31T01:43:17.452Z,28.03
2023-03-31T01:44:17.473Z,26.77
2023-03-31T01:45:17.488Z,28.63
2023-03-31T01:46:17.530Z,27.87
2023-03-31T01:47:17.507Z,27.46
2023-03-31T01:48:17.550Z,27.85
2023-03-31T01:49:17.542Z,28.06
2023-03-31T01:50:17.545Z,27.38
2023-03-31T01:51:17.554Z,27.55
2023-03-31T01:52:17.711Z,28.01
2023-03-31T01:53:17.569Z,27.80
2023-03-31T01:54:17.589Z,27.05
2023-03-31T01:55:17.599Z,27.37
2023-03-31T01:56:17.605Z,26.34
2023-03-31T01:57:17.659Z,29.63
2023-03-31T01:58:17.631Z,28.10
2023-03-31T01:59:18.527Z,27.88
2023-03-31T02:00:17.649Z,27.28
2023-03-31T02:01:17.699Z,26.72
2023-03-31T02:02:17.878Z,26.83
2023-03-31T02:03:18.636Z,28.89
2023-03-31T02:04:17.731Z,28.27
2023-03-31T02:05:17.712Z,26.27
2023-03-31T02:06:17.726Z,26.82
2023-03-31T02:07:17.732Z,25.81
2023-03-31T02:08:17.739Z,28.04
2023-03-31T02:09:17.765Z,27.01
2023-03-31T02:10:17.779Z,27.45
2023-03-31T02:11:17.789Z,27.17
2023-03-31T02:12:17.795Z,28.43
2023-03-31T02:13:17.818Z,26.69
2023-03-31T02:14:17.824Z,28.28
2023-03-31T02:15:17.832Z,27.10
2023-03-31T02:16:17.911Z,26.07
2023-03-31T02:17:17.860Z,26.93
2023-03-31T02:18:17.865Z,27.06
2023-03-31T02:19:17.879Z,26.87
2023-03-31T02:20:17.925Z,28.06
2023-03-31T02:21:17.919Z,26.61
2023-03-31T02:22:17.922Z,27.67
2023-03-31T02:23:18.052Z,27.01
2023-03-31T02:24:17.956Z,26.37
2023-03-31T02:25:17.983Z,27.18
2023-03-31T02:26:17.987Z,27.70
2023-03-31T02:27:17.977Z,26.72
2023-03-31T02:28:17.998Z,28.30
2023-03-31T02:29:18.011Z,27.65
2023-03-31T02:30:18.025Z,26.43
2023-03-31T02:31:18.070Z,25.91
2023-03-31T02:32:18.049Z,27.93
2023-03-31T02:33:18.062Z,25.77
2023-03-31T02:34:18.085Z,27.04
2023-03-31T02:35:18.149Z,27.03
2023-03-31T02:36:18.644Z,27.11
2023-03-31T02:37:18.117Z,27.83
2023-03-31T02:38:18.127Z,26.47
2023-03-31T02:39:18.144Z,25.00
2023-03-31T02:40:18.168Z,26.35
2023-03-31T02:41:18.180Z,27.72
2023-03-31T02:42:18.211Z,27.23
2023-03-31T02:43:18.204Z,27.78
2023-03-31T02:44:18.229Z,26.23
2023-03-31T02:45:18.250Z,27.73
2023-03-31T02:46:18.281Z,26.17
2023-03-31T02:47:18.263Z,26.76
2023-03-31T02:48:18.275Z,28.95
2023-03-31T02:49:18.297Z,28.78
2023-03-31T02:50:18.300Z,26.74
2023-03-31T02:51:18.316Z,28.21
2023-03-31T02:52:18.347Z,28.31
2023-03-31T02:53:18.546Z,28.76
2023-03-31T02:54:18.351Z,29.59
2023-03-31T02:55:19.048Z,27.54
2023-03-31T02:56:18.381Z,28.03
2023-03-31T02:57:18.422Z,28.64
2023-03-31T02:58:18.482Z,27.39
2023-03-31T02:59:18.427Z,28.78
2023-03-31T03:00:18.439Z,28.22
2023-03-31T03:01:18.495Z,28.78
2023-03-31T03:02:18.506Z,27.23
2023-03-31T03:03:18.489Z,27.46
2023-03-31T03:04:18.489Z,29.12
2023-03-31T03:05:18.507Z,28.98
2023-03-31T03:06:18.517Z,28.91
2023-03-31T03:07:18.532Z,27.96
2023-03-31T03:08:18.574Z,29.02
2023-03-31T03:09:18.556Z,27.89
2023-03-31T03:10:18.563Z,28.37
2023-03-31T03:11:18.573Z,28.49
2023-03-31T03:12:18.584Z,28.03
2023-03-31T03:13:19.068Z,27.65
2023-03-31T03:14:18.617Z,27.83
2023-03-31T03:15:19.058Z,28.55
2023-03-31T03:16:18.654Z,29.59
2023-03-31T03:17:18.647Z,28.37
2023-03-31T03:18:18.663Z,27.00
2023-03-31T03:19:18.676Z,29.07
2023-03-31T03:20:18.693Z,27.97
2023-03-31T03:21:18.703Z,29.17
2023-03-31T03:22:18.742Z,27.40
2023-03-31T03:23:18.758Z,27.50
2023-03-31T03:24:18.795Z,28.43
2023-03-31T03:25:18.770Z,28.57
2023-03-31T03:26:18.788Z,28.92
2023-03-31T03:27:18.806Z,27.35
2023-03-31T03:28:18.810Z,29.95
2023-03-31T03:29:18.820Z,28.36
2023-03-31T03:30:18.836Z,28.83
2023-03-31T03:31:19.578Z,28.82
2023-03-31T03:32:18.866Z,28.22
2023-03-31T03:33:18.940Z,28.68
2023-03-31T03:34:21.568Z,28.82
2023-03-31T03:35:25.562Z,31.04
2023-03-31T03:36:18.907Z,31.58
2023-03-31T03:37:18.901Z,31.57
2023-03-31T03:38:18.907Z,31.44
2023-03-31T03:39:18.922Z,31.33
2023-03-31T03:40:19.600Z,28.55
2023-03-31T03:41:18.934Z,30.74
2023-03-31T03:42:18.946Z,28.95
2023-03-31T03:43:18.930Z,28.96
2023-03-31T03:44:18.982Z,28.56
2023-03-31T03:45:18.971Z,29.34
2023-03-31T03:46:18.991Z,28.40
2023-03-31T03:47:18.969Z,27.94
2023-03-31T03:48:18.961Z,29.15
2023-03-31T03:49:18.965Z,26.73
2023-03-31T03:50:18.960Z,28.56
2023-03-31T03:51:18.959Z,29.40
2023-03-31T03:52:18.963Z,28.94
2023-03-31T03:53:18.954Z,27.80
2023-03-31T03:54:18.956Z,27.31
2023-03-31T03:55:18.953Z,29.17
2023-03-31T03:56:18.990Z,26.92
2023-03-31T03:57:19.025Z,27.24
2023-03-31T03:58:19.088Z,27.44
2023-03-31T03:59:18.959Z,27.70
2023-03-31T04:00:18.962Z,27.62
2023-03-31T04:01:19.573Z,26.04
2023-03-31T04:02:19.610Z,26.52
2023-03-31T04:03:18.999Z,26.83
2023-03-31T04:04:18.952Z,27.41
2023-03-31T04:05:18.998Z,28.35
2023-03-31T04:06:18.954Z,25.48
2023-03-31T04:07:18.958Z,26.53
2023-03-31T04:08:19.570Z,26.31
2023-03-31T04:09:18.964Z,25.51
2023-03-31T04:10:18.946Z,27.12
2023-03-31T04:11:19.362Z,27.60
2023-03-31T04:12:18.975Z,28.49
2023-03-31T04:13:19.024Z,26.90
2023-03-31T04:14:19.568Z,26.40
2023-03-31T04:15:18.945Z,26.45
2023-03-31T04:16:19.009Z,28.01
2023-03-31T04:17:18.956Z,26.39
2023-03-31T04:18:18.955Z,25.70
2023-03-31T04:19:18.958Z,28.31
2023-03-31T04:20:18.945Z,25.36
2023-03-31T04:21:18.974Z,28.55
2023-03-31T04:22:18.950Z,26.17
2023-03-31T04:23:18.954Z,27.54
2023-03-31T04:24:19.497Z,28.29
2023-03-31T04:25:18.951Z,26.86
2023-03-31T04:26:18.968Z,28.43
2023-03-31T04:27:18.957Z,27.31
2023-03-31T04:28:18.997Z,27.41
2023-03-31T04:29:18.992Z,26.99
2023-03-31T04:30:19.011Z,27.02
2023-03-31T04:31:19.088Z,27.92
2023-03-31T04:32:19.064Z,27.55
2023-03-31T04:33:19.086Z,27.89
2023-03-31T04:34:19.090Z,27.79
2023-03-31T04:35:19.111Z,26.66
2023-03-31T04:36:19.137Z,27.13
2023-03-31T04:37:19.141Z,28.23
2023-03-31T04:38:19.149Z,28.12
2023-03-31T04:39:19.184Z,29.13
2023-03-31T04:40:19.202Z,29.15
2023-03-31T04:41:19.226Z,27.56
2023-03-31T04:42:19.585Z,27.14
2023-03-31T04:43:19.261Z,28.12
2023-03-31T04:44:20.104Z,29.20
2023-03-31T04:45:19.303Z,29.56
2023-03-31T04:46:19.367Z,29.02
2023-03-31T04:47:19.339Z,28.92
2023-03-31T04:48:19.362Z,30.46
2023-03-31T04:49:19.370Z,29.22
2023-03-31T04:50:19.382Z,26.76
2023-03-31T04:51:19.395Z,28.32
2023-03-31T04:52:19.423Z,28.58
2023-03-31T04:53:19.436Z,27.15
2023-03-31T04:54:19.455Z,28.44
2023-03-31T04:55:19.477Z,28.34
2023-03-31T04:56:19.498Z,29.02
2023-03-31T04:57:19.615Z,27.83
2023-03-31T04:58:19.580Z,29.35
2023-03-31T04:59:19.578Z,26.03
2023-03-31T05:00:19.612Z,29.00
2023-03-31T05:01:19.623Z,29.20
2023-03-31T05:02:19.705Z,27.96
2023-03-31T05:03:19.757Z,28.10
2023-03-31T05:04:19.661Z,28.51
2023-03-31T05:05:19.705Z,30.01
2023-03-31T05:06:19.704Z,28.96
2023-03-31T05:07:19.723Z,29.60
2023-03-31T05:08:19.753Z,30.16
2023-03-31T05:09:19.772Z,28.84
2023-03-31T05:10:19.786Z,28.73
2023-03-31T05:11:19.803Z,29.91
2023-03-31T05:12:19.830Z,29.27
2023-03-31T05:13:19.843Z,30.50
2023-03-31T05:14:19.858Z,28.54
2023-03-31T05:15:19.887Z,30.55
2023-03-31T05:16:19.955Z,29.67
2023-03-31T05:17:20.105Z,30.20
2023-03-31T05:18:22.600Z,30.02
2023-03-31T05:19:19.979Z,35.23
2023-03-31T05:20:20.023Z,31.67
2023-03-31T05:21:19.942Z,33.29
2023-03-31T05:22:19.928Z,34.28
2023-03-31T05:23:19.938Z,34.42
2023-03-31T05:24:19.932Z,34.28
2023-03-31T05:25:19.930Z,33.13
2023-03-31T05:26:19.940Z,33.56
2023-03-31T05:27:20.627Z,34.94
2023-03-31T05:28:19.938Z,33.80
2023-03-31T05:29:19.932Z,32.73
2023-03-31T05:30:19.952Z,37.99
2023-03-31T05:31:19.990Z,37.19
2023-03-31T05:32:19.973Z,35.76
2023-03-31T05:33:20.113Z,37.32
2023-03-31T05:34:19.993Z,41.23
2023-03-31T05:35:19.951Z,46.19
2023-03-31T05:36:20.223Z,55.48
2023-03-31T05:37:19.966Z,58.77
2023-03-31T05:38:19.957Z,59.58
2023-03-31T05:39:19.962Z,61.16
2023-03-31T05:40:19.955Z,61.07
2023-03-31T05:41:20.121Z,64.35
2023-03-31T05:42:19.949Z,62.72
2023-03-31T05:43:20.113Z,60.18
2023-03-31T05:44:20.121Z,64.26
2023-03-31T05:45:19.961Z,73.59
2023-03-31T05:46:19.971Z,98.22
2023-03-31T05:47:19.943Z,94.17
2023-03-31T05:48:19.967Z,88.15
2023-03-31T05:49:20.127Z,88.35
2023-03-31T05:50:19.940Z,83.92
2023-03-31T05:51:19.911Z,88.09
2023-03-31T05:52:21.307Z,90.29
2023-03-31T05:53:20.121Z,92.16
2023-03-31T05:54:20.120Z,92.94
2023-03-31T05:55:19.928Z,92.00
2023-03-31T05:56:19.917Z,91.71
2023-03-31T05:57:20.201Z,86.97
2023-03-31T05:58:20.502Z,86.15
2023-03-31T05:59:20.463Z,84.66
2023-03-31T06:00:19.978Z,84.16
2023-03-31T06:01:20.045Z,85.30
2023-03-31T06:02:19.998Z,84.27
2023-03-31T06:03:20.541Z,84.71
2023-03-31T06:04:20.112Z,83.90
2023-03-31T06:05:20.033Z,82.58
2023-03-31T06:06:20.055Z,83.92
2023-03-31T06:07:20.049Z,81.71
2023-03-31T06:08:20.531Z,80.50
2023-03-31T06:09:20.070Z,81.24
2023-03-31T06:10:20.065Z,79.86
2023-03-31T06:11:20.083Z,78.55
2023-03-31T06:12:20.463Z,78.83
2023-03-31T06:13:20.517Z,77.77
2023-03-31T06:14:20.489Z,78.78
2023-03-31T06:15:20.504Z,77.31
2023-03-31T06:16:20.516Z,77.31
2023-03-31T06:17:20.495Z,76.08
2023-03-31T06:18:20.625Z,74.98
2023-03-31T06:19:20.500Z,75.49
2023-03-31T06:20:28.286Z,74.70
2023-03-31T06:21:20.500Z,75.04
2023-03-31T06:22:20.498Z,75.46
2023-03-31T06:23:20.630Z,75.06
2023-03-31T06:24:20.527Z,74.74
2023-03-31T06:25:20.510Z,74.98
2023-03-31T06:26:20.499Z,72.62
2023-03-31T06:27:20.507Z,72.97
2023-03-31T06:28:20.642Z,71.83
2023-03-31T06:29:20.521Z,71.81
2023-03-31T06:30:20.513Z,72.32
2023-03-31T06:31:21.546Z,70.61
2023-03-31T06:32:20.513Z,73.04
2023-03-31T06:33:20.634Z,72.99
2023-03-31T06:34:21.549Z,70.39
2023-03-31T06:35:20.512Z,70.13
2023-03-31T06:36:20.539Z,69.93
2023-03-31T06:37:20.502Z,69.55
2023-03-31T06:38:20.793Z,69.89
2023-03-31T06:39:20.512Z,67.89
2023-03-31T06:40:20.636Z,67.20
2023-03-31T06:41:20.660Z,67.81
2023-03-31T06:42:20.505Z,68.40
2023-03-31T06:43:20.636Z,68.67
2023-03-31T06:44:20.633Z,68.21
2023-03-31T06:45:20.538Z,67.84
2023-03-31T06:46:20.560Z,67.17
2023-03-31T06:47:20.558Z,67.18
2023-03-31T06:48:20.642Z,65.19
2023-03-31T06:49:20.509Z,65.04
2023-03-31T06:50:21.521Z,65.16
2023-03-31T06:51:53.393Z,64.47
2023-03-31T06:52:20.514Z,64.80
2023-03-31T06:53:21.787Z,65.42
2023-03-31T06:54:20.520Z,66.56
2023-03-31T06:55:20.509Z,65.76
2023-03-31T06:56:20.513Z,66.90
2023-03-31T06:57:20.519Z,65.74
2023-03-31T06:58:20.636Z,65.14
2023-03-31T06:59:20.649Z,64.64
2023-03-31T07:00:22.851Z,64.76
2023-03-31T07:01:20.586Z,67.37
2023-03-31T07:02:20.541Z,66.12
2023-03-31T07:03:20.636Z,63.76
2023-03-31T07:04:20.651Z,63.25
2023-03-31T07:05:20.551Z,63.95
2023-03-31T07:06:20.524Z,63.42
2023-03-31T07:07:20.576Z,64.09
2023-03-31T07:08:21.564Z,63.59
2023-03-31T07:09:20.528Z,64.13
2023-03-31T07:10:20.522Z,62.01
2023-03-31T07:11:23.145Z,62.22
2023-03-31T07:12:20.522Z,62.35
2023-03-31T07:13:20.647Z,62.61
2023-03-31T07:14:20.525Z,62.75
2023-03-31T07:15:20.534Z,62.51
2023-03-31T07:16:20.622Z,61.70
2023-03-31T07:17:20.538Z,61.40
2023-03-31T07:18:20.650Z,61.30
2023-03-31T07:19:20.526Z,59.24
2023-03-31T07:20:20.532Z,60.15
2023-03-31T07:21:20.527Z,61.06
2023-03-31T07:22:20.527Z,60.30
2023-03-31T07:23:20.676Z,60.41
2023-03-31T07:24:20.530Z,62.12
2023-03-31T07:25:20.527Z,57.83
2023-03-31T07:26:20.533Z,57.87
2023-03-31T07:27:20.539Z,60.42
2023-03-31T07:28:20.655Z,59.45
2023-03-31T07:29:20.561Z,59.30
2023-03-31T07:30:20.540Z,60.22
2023-03-31T07:31:20.576Z,57.63
2023-03-31T07:32:20.596Z,58.42
2023-03-31T07:33:20.678Z,58.51
2023-03-31T07:34:20.533Z,60.57
2023-03-31T07:35:20.543Z,61.07
2023-03-31T07:36:21.236Z,59.50
2023-03-31T07:37:20.539Z,61.88
2023-03-31T07:38:20.668Z,60.96
2023-03-31T07:39:20.714Z,61.71
2023-03-31T07:40:20.659Z,59.68
2023-03-31T07:41:20.552Z,60.76
2023-03-31T07:42:20.542Z,60.85
2023-03-31T07:43:20.541Z,59.13
2023-03-31T07:44:20.660Z,60.41
2023-03-31T07:45:20.668Z,60.75
2023-03-31T07:46:20.640Z,61.10
2023-03-31T07:47:20.541Z,60.40
2023-03-31T07:48:20.574Z,61.61
2023-03-31T07:49:20.681Z,62.14
2023-03-31T07:50:20.559Z,61.89
2023-03-31T07:51:20.547Z,62.00
2023-03-31T07:52:20.546Z,61.23
2023-03-31T07:53:20.553Z,65.88
2023-03-31T07:54:20.655Z,57.97
2023-03-31T07:55:20.732Z,62.88
2023-03-31T07:56:20.553Z,71.29
2023-03-31T07:57:20.587Z,74.96
2023-03-31T07:58:20.658Z,75.94
2023-03-31T07:59:20.553Z,81.42
2023-03-31T08:00:20.443Z,81.60
2023-03-31T08:01:20.506Z,88.59
2023-03-31T08:02:20.650Z,89.44
2023-03-31T08:03:20.732Z,93.51
2023-03-31T08:04:21.234Z,108.92
2023-03-31T08:05:20.675Z,101.66
2023-03-31T08:06:20.705Z,112.09
2023-03-31T08:07:20.735Z,117.00
2023-03-31T08:08:21.197Z,117.32
2023-03-31T08:09:21.166Z,118.71
2023-03-31T08:10:20.862Z,104.95
2023-03-31T08:11:21.332Z,86.63
2023-03-31T08:12:21.171Z,88.74
2023-03-31T08:13:20.946Z,96.04
2023-03-31T08:14:30.394Z,97.06
2023-03-31T08:15:20.984Z,97.40
2023-03-31T08:16:21.004Z,98.28
2023-03-31T08:17:20.975Z,92.41
2023-03-31T08:18:20.978Z,80.93
2023-03-31T08:19:20.943Z,62.24
2023-03-31T08:20:20.951Z,54.55
2023-03-31T08:21:24.254Z,48.71
2023-03-31T08:22:20.951Z,49.08
2023-03-31T08:23:20.948Z,48.89
2023-03-31T08:24:21.669Z,38.76
2023-03-31T08:25:21.501Z,35.35
2023-03-31T08:26:21.172Z,30.14
2023-03-31T08:27:20.985Z,25.69
2023-03-31T08:28:20.936Z,29.25
2023-03-31T08:29:20.967Z,26.56
2023-03-31T08:30:21.365Z,25.00
2023-03-31T08:31:26.684Z,28.11
2023-03-31T08:32:20.958Z,19.91
2023-03-31T08:33:20.947Z,1.57
2023-03-31T08:34:20.951Z,0.00
2023-03-31T08:35:21.195Z,0.00
2023-03-31T08:36:20.978Z,2.33
2023-03-31T08:37:21.559Z,28.33
2023-03-31T08:38:21.677Z,25.59
2023-03-31T08:39:20.959Z,25.00
2023-03-31T08:40:21.674Z,25.00
2023-03-31T08:41:20.950Z,28.99
2023-03-31T08:42:21.537Z,25.00
2023-03-31T08:43:20.973Z,29.81
2023-03-31T08:44:20.945Z,28.57
2023-03-31T08:45:21.539Z,31.29
2023-03-31T08:46:21.715Z,34.93
2023-03-31T08:47:21.686Z,32.62
2023-03-31T08:48:20.939Z,30.98
2023-03-31T08:49:23.675Z,27.03
2023-03-31T08:50:21.681Z,26.85
2023-03-31T08:51:23.679Z,29.59
2023-03-31T08:52:21.556Z,29.76
2023-03-31T08:53:21.977Z,30.23
2023-03-31T08:54:20.922Z,20.58
2023-03-31T08:55:20.911Z,24.88
2023-03-31T08:56:21.903Z,25.82
2023-03-31T08:57:20.937Z,26.85
2023-03-31T08:58:20.901Z,25.37
2023-03-31T08:59:21.540Z,26.98
2023-03-31T09:00:23.694Z,28.66
2023-03-31T09:01:23.805Z,32.35
2023-03-31T09:02:21.603Z,32.55
2023-03-31T09:03:20.943Z,28.30
2023-03-31T09:04:21.111Z,26.44
2023-03-31T09:05:22.125Z,20.22
2023-03-31T09:06:21.542Z,23.71
2023-03-31T09:07:20.886Z,25.00
2023-03-31T09:08:23.774Z,26.36
2023-03-31T09:09:25.069Z,26.39
2023-03-31T09:10:21.641Z,26.73
2023-03-31T09:11:20.856Z,27.01
2023-03-31T09:12:20.863Z,16.80
2023-03-31T09:13:21.553Z,16.48
2023-03-31T09:14:20.853Z,15.35
2023-03-31T09:15:20.926Z,26.31
2023-03-31T09:16:21.803Z,25.00
2023-03-31T09:17:20.917Z,27.35
2023-03-31T09:18:22.439Z,25.26
2023-03-31T09:19:20.859Z,25.46
2023-03-31T09:20:20.950Z,24.06
2023-03-31T09:21:20.882Z,16.21
2023-03-31T09:22:20.930Z,13.42
2023-03-31T09:23:21.560Z,17.57
2023-03-31T09:24:20.929Z,25.00
2023-03-31T09:25:20.866Z,33.68
2023-03-31T09:26:21.577Z,33.70
2023-03-31T09:27:20.903Z,36.95
2023-03-31T09:28:20.889Z,40.42
2023-03-31T09:29:21.198Z,46.49
2023-03-31T09:30:20.943Z,40.68
2023-03-31T09:31:20.979Z,40.81
2023-03-31T09:32:21.003Z,47.12
2023-03-31T09:33:20.901Z,52.19
2023-03-31T09:34:21.202Z,56.36
2023-03-31T09:35:20.911Z,62.09
2023-03-31T09:36:20.972Z,68.58
2023-03-31T09:37:20.995Z,67.75
2023-03-31T09:38:21.209Z,69.93
2023-03-31T09:39:20.972Z,76.61
2023-03-31T09:40:21.063Z,81.46
2023-03-31T09:41:21.073Z,73.99
2023-03-31T09:42:21.151Z,68.49
2023-03-31T09:43:21.221Z,59.56
2023-03-31T09:44:21.222Z,59.19
2023-03-31T09:45:21.238Z,63.50
2023-03-31T09:46:21.829Z,51.97
2023-03-31T09:47:21.759Z,49.68
2023-03-31T09:48:22.252Z,57.80
2023-03-31T09:49:21.711Z,41.09
2023-03-31T09:50:25.447Z,60.13
2023-03-31T09:51:21.472Z,60.96
2023-03-31T09:52:21.474Z,63.24
2023-03-31T09:53:21.503Z,69.10
2023-03-31T09:54:21.709Z,78.19
2023-03-31T09:55:32.468Z,88.27
2023-03-31T09:56:21.497Z,61.31
2023-03-31T09:57:21.551Z,64.80
2023-03-31T09:58:21.491Z,69.76
2023-03-31T09:59:21.485Z,76.61
2023-03-31T10:00:21.493Z,84.95
2023-03-31T10:01:21.524Z,87.43
2023-03-31T10:02:21.492Z,84.21
2023-03-31T10:03:21.521Z,72.30
2023-03-31T10:04:21.504Z,68.73
2023-03-31T10:05:21.715Z,66.61
2023-03-31T10:06:21.504Z,61.94
2023-03-31T10:07:21.499Z,59.16
2023-03-31T10:08:21.503Z,54.34
2023-03-31T10:09:21.506Z,59.57
2023-03-31T10:10:21.741Z,58.01
2023-03-31T10:11:21.515Z,59.73
2023-03-31T10:12:21.532Z,62.32
2023-03-31T10:13:21.538Z,62.11
2023-03-31T10:14:21.555Z,59.89
2023-03-31T10:15:22.214Z,54.58
2023-03-31T10:16:21.771Z,33.63
2023-03-31T10:17:21.557Z,17.01
2023-03-31T10:18:21.635Z,37.46
2023-03-31T10:19:22.289Z,25.00
2023-03-31T10:20:21.717Z,28.00
2023-03-31T10:21:21.587Z,29.13
2023-03-31T10:22:21.597Z,26.27
2023-03-31T10:23:22.242Z,25.00
2023-03-31T10:24:21.689Z,25.09
2023-03-31T10:25:22.221Z,31.96
2023-03-31T10:26:21.796Z,24.52
2023-03-31T10:27:22.234Z,32.06
2023-03-31T10:28:22.756Z,25.00
2023-03-31T10:29:21.933Z,27.71
2023-03-31T10:30:22.224Z,24.79
2023-03-31T10:31:22.132Z,29.74
2023-03-31T10:32:22.742Z,30.48
2023-03-31T10:33:23.539Z,26.81
2023-03-31T10:34:22.076Z,31.87
2023-03-31T10:35:22.260Z,27.29
2023-03-31T10:36:22.119Z,28.64
2023-03-31T10:37:22.117Z,28.22
2023-03-31T10:38:22.278Z,25.27
2023-03-31T10:39:22.154Z,39.40
2023-03-31T10:40:22.219Z,41.79
2023-03-31T10:41:22.833Z,56.23
2023-03-31T10:42:22.206Z,76.43
2023-03-31T10:43:22.230Z,93.34
2023-03-31T10:44:22.250Z,115.66
2023-03-31T10:45:35.769Z,127.15
2023-03-31T10:46:22.313Z,113.43
2023-03-31T10:47:22.320Z,109.72
2023-03-31T10:48:22.343Z,101.65
2023-03-31T10:49:22.352Z,84.71
2023-03-31T10:50:23.224Z,80.82
2023-03-31T10:51:22.421Z,81.20
2023-03-31T10:52:22.738Z,89.91
2023-03-31T10:53:22.449Z,93.23
2023-03-31T10:54:22.449Z,103.14
2023-03-31T10:55:22.485Z,97.80
2023-03-31T10:56:22.554Z,96.39
2023-03-31T10:57:22.637Z,101.72
2023-03-31T10:58:22.697Z,108.78
2023-03-31T10:59:22.780Z,124.66
2023-03-31T11:00:22.859Z,134.07
2023-03-31T11:01:22.956Z,128.43
2023-03-31T11:02:23.168Z,123.88
2023-03-31T11:03:23.232Z,122.96
2023-03-31T11:04:23.175Z,114.02
2023-03-31T11:05:26.307Z,108.72
2023-03-31T11:06:23.788Z,107.53
2023-03-31T11:07:23.654Z,90.75
2023-03-31T11:08:23.672Z,98.77
2023-03-31T11:09:23.652Z,93.48
2023-03-31T11:10:23.653Z,100.90
2023-03-31T11:11:23.746Z,93.77
2023-03-31T11:12:23.692Z,101.45
2023-03-31T11:13:23.702Z,109.89
2023-03-31T11:14:23.693Z,110.90
2023-03-31T11:15:24.304Z,102.25
2023-03-31T11:16:23.862Z,90.94
2023-03-31T11:17:23.842Z,79.58
2023-03-31T11:18:23.658Z,68.70
2023-03-31T11:19:23.675Z,69.56
2023-03-31T11:20:24.239Z,68.61
2023-03-31T11:21:23.782Z,70.45
2023-03-31T11:22:23.806Z,70.07
2023-03-31T11:23:23.766Z,68.76
2023-03-31T11:24:24.729Z,71.49
2023-03-31T11:25:24.672Z,63.41
2023-03-31T11:26:24.249Z,67.19
2023-03-31T11:27:23.947Z,63.44
2023-03-31T11:28:23.906Z,69.90
2023-03-31T11:29:23.940Z,69.36
2023-03-31T11:30:24.627Z,60.15
2023-03-31T11:31:24.076Z,53.75
2023-03-31T11:32:24.026Z,44.30
2023-03-31T11:33:24.063Z,60.63
2023-03-31T11:34:24.080Z,66.39
2023-03-31T11:35:24.106Z,57.91
2023-03-31T11:36:24.144Z,63.31
2023-03-31T11:37:24.292Z,69.15
2023-03-31T11:38:24.764Z,90.08
2023-03-31T11:39:24.666Z,102.47
2023-03-31T11:40:24.678Z,94.31
2023-03-31T11:41:24.739Z,94.39
2023-03-31T11:42:24.683Z,103.60
2023-03-31T11:43:24.666Z,107.30
2023-03-31T11:44:24.673Z,101.50
2023-03-31T11:45:24.739Z,103.15
2023-03-31T11:46:24.819Z,104.95
2023-03-31T11:47:24.848Z,115.38
2023-03-31T11:48:24.896Z,117.21
2023-03-31T11:49:24.951Z,116.83
2023-03-31T11:50:25.749Z,107.55
2023-03-31T11:51:25.078Z,102.89
2023-03-31T11:52:25.245Z,110.28
2023-03-31T11:53:25.243Z,108.31
2023-03-31T11:54:25.324Z,114.54
2023-03-31T11:55:25.376Z,122.80
2023-03-31T11:56:25.476Z,113.23
2023-03-31T11:57:25.568Z,104.08
2023-03-31T11:58:25.606Z,107.30
2023-03-31T11:59:25.665Z,95.96
2023-03-31T12:00:25.748Z,95.52
2023-03-31T12:01:25.832Z,78.70
2023-03-31T12:02:25.950Z,75.63
2023-03-31T12:03:26.353Z,102.78
2023-03-31T12:04:26.072Z,87.59
2023-03-31T12:05:26.789Z,84.02
2023-03-31T12:06:26.276Z,109.33
2023-03-31T12:07:26.334Z,92.98
2023-03-31T12:08:26.436Z,105.26
2023-03-31T12:09:26.490Z,151.97
2023-03-31T12:10:26.602Z,125.06
2023-03-31T12:11:26.753Z,81.22
2023-03-31T12:12:26.725Z,28.13
2023-03-31T12:13:26.810Z,25.38
2023-03-31T12:14:26.891Z,60.28
2023-03-31T12:15:26.979Z,54.56
2023-03-31T12:16:27.125Z,23.48
2023-03-31T12:17:27.250Z,23.40
2023-03-31T12:18:27.317Z,31.55
2023-03-31T12:19:27.294Z,66.97
2023-03-31T12:20:27.347Z,96.96
2023-03-31T12:21:27.408Z,100.92
2023-03-31T12:22:27.491Z,130.36
2023-03-31T12:23:27.566Z,145.24
2023-03-31T12:24:27.629Z,161.43
2023-03-31T12:25:27.689Z,212.43
2023-03-31T12:26:27.801Z,228.94
2023-03-31T12:27:28.268Z,215.99
2023-03-31T12:28:27.910Z,219.89
2023-03-31T12:29:27.963Z,231.12
2023-03-31T12:30:28.058Z,228.95
2023-03-31T12:31:28.196Z,236.24
2023-03-31T12:32:28.275Z,242.00
2023-03-31T12:33:28.344Z,241.29
2023-03-31T12:34:28.438Z,240.34
2023-03-31T12:35:28.506Z,242.99
2023-03-31T12:36:28.711Z,241.42
2023-03-31T12:37:28.769Z,240.83
2023-03-31T12:38:28.757Z,245.05
2023-03-31T12:39:28.824Z,248.20
2023-03-31T12:40:28.887Z,240.88
2023-03-31T12:41:28.944Z,245.65
2023-03-31T12:42:29.297Z,250.00
2023-03-31T12:43:29.172Z,245.71
2023-03-31T12:44:29.120Z,246.57
2023-03-31T12:45:29.202Z,247.29
2023-03-31T12:46:29.249Z,250.00
2023-03-31T12:47:29.882Z,246.99
2023-03-31T12:48:29.721Z,246.63
2023-03-31T12:49:29.715Z,245.04
2023-03-31T12:50:29.725Z,227.83